Time;durP1;ratioP1;P1;durP2;ratioP2;P2;SDS_P1;SDS_P2;PMS_P1;PMS_P2;Temp;Humidity;BMP_temperature;BMP_pressure;BME280_temperature;BME280_humidity;BME280_pressure;Samples;Min_cycle;Max_cycle;Signal;HPM_P1;HPM_P2
2021/10/20 00:00:22;;;;;;;20.10;14.18;;;;;;;5.35;70.61;95979.91;5090880;28;20032;-76
2021/10/20 00:02:49;;;;;;;22.25;15.65;;;;;;;5.35;70.60;95987.66;5106982;28;20116;-76
2021/10/20 00:05:15;;;;;;;23.95;15.55;;;;;;;5.31;70.91;95981.78;5089980;28;20085;-76
2021/10/20 00:07:41;;;;;;;21.98;15.00;;;;;;;5.32;70.64;95988.63;5089926;28;20028;-76
2021/10/20 00:10:07;;;;;;;26.83;15.30;;;;;;;5.35;70.60;95982.50;5089571;28;20102;-76
2021/10/20 00:12:32;;;;;;;22.65;14.98;;;;;;;5.30;70.82;95980.09;5123758;28;20501;-76
2021/10/20 00:14:58;;;;;;;21.23;14.82;;;;;;;5.28;70.80;95973.34;5089887;28;20485;-77
2021/10/20 00:17:23;;;;;;;21.92;14.38;;;;;;;5.27;71.04;95974.25;5106774;28;20043;-76
2021/10/20 00:19:54;;;;;;;20.25;13.88;;;;;;;5.29;71.03;95975.88;5107734;28;20044;-76
2021/10/20 00:22:20;;;;;;;26.42;16.50;;;;;;;5.17;71.41;95973.81;5095292;28;20081;-76
2021/10/20 00:24:45;;;;;;;24.13;15.43;;;;;;;5.14;71.78;95971.38;5093620;28;20040;-76
2021/10/20 00:27:11;;;;;;;22.02;14.82;;;;;;;5.15;71.37;95967.88;5110293;28;20098;-76
2021/10/20 00:29:36;;;;;;;22.45;14.63;;;;;;;5.11;71.86;95980.06;5094439;28;20464;-76
2021/10/20 00:32:02;;;;;;;22.80;15.10;;;;;;;5.10;71.56;95975.81;5095130;28;20485;-76
2021/10/20 00:34:27;;;;;;;25.85;16.05;;;;;;;5.03;71.64;95965.84;5094772;28;20024;-76
2021/10/20 00:36:53;;;;;;;21.17;15.00;;;;;;;5.08;71.32;95969.06;5093363;28;20035;-76
2021/10/20 00:39:18;;;;;;;23.55;14.55;;;;;;;5.08;71.71;95972.47;5127084;27;20032;-76
2021/10/20 00:41:43;;;;;;;23.67;14.18;;;;;;;5.12;71.58;95971.41;5094285;28;20029;-75
2021/10/20 00:44:09;;;;;;;22.17;14.73;;;;;;;5.13;71.46;95969.69;5093249;28;20032;-76
2021/10/20 00:46:34;;;;;;;22.98;14.93;;;;;;;5.12;71.25;95970.59;5094525;28;20043;-76
2021/10/20 00:49:00;;;;;;;23.10;15.57;;;;;;;5.07;71.59;95969.94;5092843;28;20024;-76
2021/10/20 00:51:25;;;;;;;26.33;14.93;;;;;;;5.08;71.72;95966.47;5110054;28;20028;-76
2021/10/20 00:53:55;;;;;;;24.08;14.82;;;;;;;5.09;71.45;95971.56;5076096;28;20036;-76
2021/10/20 00:56:21;;;;;;;23.25;15.35;;;;;;;5.06;71.71;95971.69;5075930;28;20028;-76
2021/10/20 00:58:47;;;;;;;25.17;15.68;;;;;;;5.06;71.56;95970.84;5109448;28;20512;-75
2021/10/20 01:01:12;;;;;;;20.33;14.32;;;;;;;4.99;71.93;95954.00;5092966;28;20040;-76
2021/10/20 01:03:38;;;;;;;24.20;15.45;;;;;;;5.04;71.64;95963.22;5109678;28;20032;-76
2021/10/20 01:06:04;;;;;;;22.33;15.73;;;;;;;4.94;71.67;95951.63;5092628;28;20039;-76
2021/10/20 01:08:30;;;;;;;23.55;15.20;;;;;;;5.04;71.97;95962.34;5075645;28;20116;-75
2021/10/20 01:10:56;;;;;;;20.83;13.63;;;;;;;4.97;71.81;95953.22;5094167;28;20458;-76
2021/10/20 01:13:21;;;;;;;19.95;14.38;;;;;;;4.96;71.61;95947.25;5093868;28;20024;-76
2021/10/20 01:15:46;;;;;;;22.02;15.20;;;;;;;4.99;71.99;95954.00;5093650;28;20024;-76
2021/10/20 01:18:12;;;;;;;21.13;14.00;;;;;;;5.00;71.52;95965.97;5093372;28;20038;-76
2021/10/20 01:20:37;;;;;;;23.38;15.10;;;;;;;4.99;71.32;95948.84;5126530;27;20405;-76
2021/10/20 01:23:03;;;;;;;19.85;14.43;;;;;;;4.92;71.78;95954.25;5092295;28;20040;-76
2021/10/20 01:25:28;;;;;;;20.52;13.35;;;;;;;4.88;72.25;95951.88;5093435;28;20032;-76
2021/10/20 01:27:54;;;;;;;23.05;15.07;;;;;;;4.73;72.32;95952.50;5109065;28;20048;-76
2021/10/20 01:30:19;;;;;;;22.58;14.95;;;;;;;4.76;72.13;95948.06;5109082;28;20024;-76
2021/10/20 01:32:45;;;;;;;22.25;14.70;;;;;;;4.80;72.40;95965.06;5083644;28;20050;-76
2021/10/20 01:35:10;;;;;;;20.27;13.77;;;;;;;4.84;72.47;95958.06;5126031;27;20491;-76
2021/10/20 01:37:36;;;;;;;20.35;14.25;;;;;;;4.85;72.05;95947.69;5090309;28;20448;-76
2021/10/20 01:40:02;;;;;;;22.05;13.93;;;;;;;4.93;71.92;95955.06;5125484;27;20030;-75
2021/10/20 01:42:29;;;;;;;20.25;13.95;;;;;;;4.93;72.15;95945.63;5125923;27;20039;-76
2021/10/20 01:44:55;;;;;;;21.90;14.73;;;;;;;5.02;72.04;95953.88;5108430;28;20031;-76
2021/10/20 01:47:20;;;;;;;19.80;14.50;;;;;;;5.07;72.20;95952.78;5108858;28;20032;-76
2021/10/20 01:49:46;;;;;;;21.40;13.35;;;;;;;5.05;71.90;95953.75;5093198;28;20422;-77
2021/10/20 01:52:12;;;;;;;20.00;13.90;;;;;;;5.04;71.61;95952.03;5092035;28;20398;-76
2021/10/20 01:54:37;;;;;;;22.42;13.68;;;;;;;4.96;72.07;95962.69;5091476;28;20036;-75
2021/10/20 01:57:03;;;;;;;19.15;13.45;;;;;;;4.99;71.99;95962.56;5125902;27;20401;-77
2021/10/20 01:59:28;;;;;;;18.45;13.30;;;;;;;4.88;71.63;95950.16;5091724;28;20067;-77
2021/10/20 02:01:54;;;;;;;19.65;12.65;;;;;;;4.85;71.71;95946.88;5108624;28;20032;-76
2021/10/20 02:04:19;;;;;;;22.15;14.30;;;;;;;4.90;71.98;95958.66;5108348;28;20043;-77
2021/10/20 02:06:45;;;;;;;21.08;13.40;;;;;;;4.90;71.43;95948.34;5093066;28;20031;-76
2021/10/20 02:09:11;;;;;;;20.33;14.07;;;;;;;4.80;71.76;95943.66;5108612;28;20505;-75
2021/10/20 02:11:36;;;;;;;16.85;12.13;;;;;;;4.84;71.61;95960.63;5091411;28;20039;-76
2021/10/20 02:14:03;;;;;;;18.33;13.90;;;;;;;4.69;71.62;95942.34;5125176;27;20028;-77
2021/10/20 02:16:28;;;;;;;20.30;13.55;;;;;;;4.72;72.10;95946.53;5091246;28;20066;-77
2021/10/20 02:18:54;;;;;;;19.30;13.43;;;;;;;4.67;72.11;95951.03;5091441;28;20078;-77
2021/10/20 02:21:20;;;;;;;19.23;13.60;;;;;;;4.70;72.38;95945.75;5108300;28;20509;-77
2021/10/20 02:23:45;;;;;;;20.92;13.68;;;;;;;4.62;72.38;95951.22;5091038;28;20406;-76
2021/10/20 02:26:11;;;;;;;18.92;11.88;;;;;;;4.62;71.97;95951.22;5092434;28;20052;-77
2021/10/20 02:28:36;;;;;;;17.65;12.45;;;;;;;4.63;72.37;95952.06;5091103;28;20032;-76
2021/10/20 02:31:01;;;;;;;20.52;13.98;;;;;;;4.64;72.38;95954.56;5108113;28;20105;-76
2021/10/20 02:33:27;;;;;;;19.88;13.57;;;;;;;4.65;72.23;95958.84;5124909;27;20069;-76
2021/10/20 02:35:52;;;;;;;20.70;14.15;;;;;;;4.64;72.11;95951.16;5091054;28;20470;-77
2021/10/20 02:38:18;;;;;;;19.25;12.88;;;;;;;4.64;72.30;95948.59;5107959;28;20063;-76
2021/10/20 02:40:43;;;;;;;18.25;13.90;;;;;;;4.57;72.33;95948.03;5091978;28;20027;-76
2021/10/20 02:43:09;;;;;;;18.17;12.40;;;;;;;4.57;71.83;95952.31;5124164;27;20043;-76
2021/10/20 02:45:34;;;;;;;18.35;12.13;;;;;;;4.53;72.07;95949.03;5125003;27;20051;-76
2021/10/20 02:47:59;;;;;;;19.88;12.93;;;;;;;4.45;72.34;95944.19;5073976;28;20031;-76
2021/10/20 02:50:28;;;;;;;19.50;13.02;;;;;;;4.42;72.73;95954.59;5090607;28;20031;-77
2021/10/20 02:52:54;;;;;;;19.75;13.18;;;;;;;4.39;73.09;95949.59;5123714;27;20084;-76
2021/10/20 02:55:19;;;;;;;19.88;13.55;;;;;;;4.40;73.21;95953.00;5090579;28;20039;-77
2021/10/20 02:57:45;;;;;;;18.02;12.77;;;;;;;4.33;72.75;95952.41;5091768;28;20024;-77
2021/10/20 03:00:10;;;;;;;18.10;11.95;;;;;;;4.34;72.89;95937.81;5124718;27;20402;-76
2021/10/20 03:02:36;;;;;;;19.20;13.23;;;;;;;4.36;72.95;95944.56;5091733;28;20062;-77
2021/10/20 03:05:01;;;;;;;20.02;13.52;;;;;;;4.34;73.38;95945.53;5124542;27;20520;-76
2021/10/20 03:07:27;;;;;;;21.77;13.43;;;;;;;4.35;73.01;95940.34;5107469;28;20409;-77
2021/10/20 03:09:52;;;;;;;20.30;13.02;;;;;;;4.37;73.24;95951.38;5124617;27;20413;-77
2021/10/20 03:12:17;;;;;;;20.02;13.65;;;;;;;4.35;73.14;95939.50;5091226;28;20040;-77
2021/10/20 03:14:43;;;;;;;20.92;12.52;;;;;;;4.37;73.16;95951.38;5091747;28;20028;-76
2021/10/20 03:17:10;;;;;;;21.08;14.25;;;;;;;4.35;73.58;95947.22;5091941;28;20032;-77
2021/10/20 03:19:35;;;;;;;23.80;14.18;;;;;;;4.20;74.17;95928.91;5090632;28;20424;-76
2021/10/20 03:22:01;;;;;;;20.60;13.75;;;;;;;4.30;73.96;95938.84;5090265;28;20032;-77
2021/10/20 03:24:26;;;;;;;20.80;13.88;;;;;;;4.35;73.37;95936.94;5090329;28;20059;-77
2021/10/20 03:26:52;;;;;;;21.98;13.40;;;;;;;4.39;73.56;95934.16;5124210;28;20044;-76
2021/10/20 03:29:17;;;;;;;20.50;13.82;;;;;;;4.36;73.90;95934.28;5091252;28;20024;-76
2021/10/20 03:31:42;;;;;;;20.10;13.57;;;;;;;4.34;73.82;95935.22;5090352;28;20040;-76
2021/10/20 03:34:08;;;;;;;22.27;14.07;;;;;;;4.30;74.31;95938.84;5090279;28;20017;-76
2021/10/20 03:36:33;;;;;;;23.08;15.07;;;;;;;4.27;74.29;95934.66;5090187;28;20041;-77
2021/10/20 03:38:59;;;;;;;23.00;14.15;;;;;;;4.26;74.52;95930.38;5124073;28;20052;-76
2021/10/20 03:41:24;;;;;;;22.95;14.27;;;;;;;4.15;74.41;95919.69;5124345;28;20044;-77
2021/10/20 03:43:50;;;;;;;23.40;15.02;;;;;;;4.18;74.63;95929.84;5073305;28;20054;-76
2021/10/20 03:46:15;;;;;;;21.67;15.20;;;;;;;4.17;74.75;95934.16;5091308;28;20028;-76
2021/10/20 03:48:41;;;;;;;19.83;14.38;;;;;;;4.19;74.89;95936.69;5124307;28;20039;-76
2021/10/20 03:51:06;;;;;;;22.90;14.75;;;;;;;4.07;75.11;95932.03;5091422;28;20408;-76
2021/10/20 03:53:32;;;;;;;23.30;14.55;;;;;;;4.06;74.86;95938.06;5125051;27;20055;-76
2021/10/20 03:55:57;;;;;;;20.80;14.23;;;;;;;4.10;74.76;95937.91;5094115;28;20497;-77
2021/10/20 03:58:23;;;;;;;19.42;13.70;;;;;;;4.13;74.25;95934.38;5076707;28;20028;-77
2021/10/20 04:00:49;;;;;;;21.48;12.75;;;;;;;4.20;74.33;95939.19;5128164;27;20040;-76
2021/10/20 04:03:14;;;;;;;20.83;13.43;;;;;;;4.16;74.15;95926.53;5094065;28;20020;-76
2021/10/20 04:05:40;;;;;;;25.05;14.30;;;;;;;4.24;74.18;95940.75;5095216;28;20067;-76
2021/10/20 04:08:05;;;;;;;20.73;13.68;;;;;;;4.31;74.17;95940.50;5094847;28;20024;-77
2021/10/20 04:10:31;;;;;;;21.08;14.52;;;;;;;4.30;74.35;95938.84;5128134;27;20032;-76
2021/10/20 04:12:56;;;;;;;20.63;13.57;;;;;;;4.33;74.28;95941.28;5093726;28;20524;-76
2021/10/20 04:15:23;;;;;;;20.17;12.60;;;;;;;4.33;74.03;95936.16;5094909;28;20093;-77
2021/10/20 04:17:48;;;;;;;21.33;13.98;;;;;;;4.40;73.79;95941.00;5127149;27;20054;-77
2021/10/20 04:20:16;;;;;;;20.77;12.60;;;;;;;4.38;73.91;95937.63;5110739;28;20490;-76
2021/10/20 04:22:41;;;;;;;21.15;13.75;;;;;;;4.34;73.49;95943.78;5127507;27;20084;-76
2021/10/20 04:25:07;;;;;;;20.23;13.43;;;;;;;4.19;73.82;95931.56;5110749;28;20028;-76
2021/10/20 04:27:33;;;;;;;20.67;13.70;;;;;;;4.19;74.06;95934.97;5094590;28;20079;-76
2021/10/20 04:29:59;;;;;;;20.40;13.80;;;;;;;4.22;73.72;95941.72;5094751;28;20064;-76
2021/10/20 04:32:28;;;;;;;22.65;14.20;;;;;;;4.24;73.64;95939.94;5095591;28;20028;-75
2021/10/20 04:34:53;;;;;;;21.13;13.65;;;;;;;4.19;73.88;95939.28;5110082;28;20035;-76
2021/10/20 04:37:24;;;;;;;21.98;13.68;;;;;;;4.24;73.72;95950.22;5127144;27;20032;-76
2021/10/20 04:39:56;;;;;;;20.00;12.95;;;;;;;4.23;74.12;95945.94;5093401;28;20032;-76
2021/10/20 04:42:22;;;;;;;19.70;12.30;;;;;;;4.28;73.33;95949.19;5093426;28;20036;-77
2021/10/20 04:44:47;;;;;;;20.45;12.93;;;;;;;4.21;73.32;95950.34;5094465;28;20035;-76
2021/10/20 04:47:13;;;;;;;19.23;13.40;;;;;;;4.12;73.74;95945.53;5109994;28;20036;-76
2021/10/20 04:49:38;;;;;;;21.80;13.82;;;;;;;4.17;73.64;95959.06;5093318;28;20032;-76
2021/10/20 04:52:04;;;;;;;17.77;13.00;;;;;;;4.17;74.05;95959.06;5093185;28;20494;-76
2021/10/20 04:54:30;;;;;;;16.55;11.88;;;;;;;4.16;74.00;95960.81;5094490;28;20032;-76
2021/10/20 04:56:55;;;;;;;19.42;13.18;;;;;;;4.13;73.41;95958.34;5092719;28;20089;-76
2021/10/20 04:59:20;;;;;;;25.33;15.85;;;;;;;4.11;73.54;95965.28;5094179;28;20036;-76
2021/10/20 05:01:46;;;;;;;25.52;17.00;;;;;;;4.11;73.86;95957.56;5094350;28;20035;-77
2021/10/20 05:04:11;;;;;;;25.30;16.45;;;;;;;4.05;74.13;95970.66;5127253;27;20020;-76
2021/10/20 05:06:37;;;;;;;20.58;13.40;;;;;;;3.97;74.36;95968.38;5108776;28;20063;-76
2021/10/20 05:09:02;;;;;;;22.38;14.05;;;;;;;3.91;74.41;95953.22;5094012;28;20024;-76
2021/10/20 05:11:27;;;;;;;21.98;14.18;;;;;;;4.00;74.66;95970.84;5126737;27;20494;-77
2021/10/20 05:13:53;;;;;;;19.25;12.70;;;;;;;4.02;74.18;95973.38;5092853;28;20069;-76
2021/10/20 05:16:18;;;;;;;22.10;12.65;;;;;;;3.97;74.13;95960.69;5093637;28;20032;-77
2021/10/20 05:18:44;;;;;;;18.83;12.73;;;;;;;4.07;74.36;95968.88;5092481;28;20024;-77
2021/10/20 05:21:09;;;;;;;20.30;15.00;;;;;;;4.06;74.49;95961.22;5092190;28;20185;-77
2021/10/20 05:23:35;;;;;;;20.55;13.10;;;;;;;4.11;74.79;95973.00;5109717;28;20032;-76
2021/10/20 05:26:00;;;;;;;19.05;12.90;;;;;;;4.10;74.88;95958.47;5093137;28;20056;-76
2021/10/20 05:28:25;;;;;;;20.33;13.10;;;;;;;4.11;75.11;95969.59;5092307;28;20032;-76
2021/10/20 05:30:51;;;;;;;18.77;13.32;;;;;;;4.17;75.15;95961.63;5093488;28;20492;-77
2021/10/20 05:33:16;;;;;;;21.33;13.00;;;;;;;4.21;74.82;95963.22;5126404;27;20024;-77
2021/10/20 05:35:42;;;;;;;21.08;13.57;;;;;;;4.20;75.06;95962.34;5126076;27;20029;-77
2021/10/20 05:38:07;;;;;;;19.27;12.85;;;;;;;4.21;74.45;95960.63;5126207;27;20040;-77
2021/10/20 05:40:34;;;;;;;22.10;12.98;;;;;;;4.27;74.21;95962.97;5093370;28;20043;-77
2021/10/20 05:43:01;;;;;;;19.27;12.80;;;;;;;4.26;74.71;95963.84;5092158;28;20031;-77
2021/10/20 05:45:26;;;;;;;20.63;13.00;;;;;;;4.24;74.78;95955.38;5092809;28;20113;-77
2021/10/20 05:47:52;;;;;;;20.20;13.32;;;;;;;4.29;74.79;95962.88;5091886;28;20477;-76
2021/10/20 05:50:17;;;;;;;20.08;13.65;;;;;;;4.23;74.88;95951.97;5093110;28;20020;-77
2021/10/20 05:52:43;;;;;;;21.00;13.60;;;;;;;4.30;74.49;95957.69;5108821;28;20041;-77
2021/10/20 05:55:08;;;;;;;19.13;13.05;;;;;;;4.36;74.66;95967.72;5108456;28;20024;-76
2021/10/20 05:57:35;;;;;;;18.80;12.43;;;;;;;4.31;74.39;95968.81;5091617;28;20035;-77
2021/10/20 06:00:01;;;;;;;23.25;12.90;;;;;;;4.36;74.48;95974.59;5092932;28;20088;-77
2021/10/20 06:02:26;;;;;;;15.80;11.55;;;;;;;4.34;74.38;95960.97;5108414;28;20036;-76
2021/10/20 06:04:51;;;;;;;21.10;13.15;;;;;;;4.41;74.49;95975.28;5125431;27;20028;-77
2021/10/20 06:07:17;;;;;;;19.48;12.68;;;;;;;4.42;74.28;95967.47;5091586;28;20024;-77
2021/10/20 06:09:42;;;;;;;18.17;12.55;;;;;;;4.46;74.15;95978.50;5125864;27;20043;-77
2021/10/20 06:12:08;;;;;;;18.45;12.77;;;;;;;4.51;74.27;95975.72;5092596;28;20081;-76
2021/10/20 06:14:33;;;;;;;18.40;12.02;;;;;;;4.54;73.99;95976.47;5091162;28;20108;-76
2021/10/20 06:16:59;;;;;;;14.90;10.30;;;;;;;4.58;73.94;95984.88;5090525;28;20032;-77
2021/10/20 06:19:24;;;;;;;17.20;11.57;;;;;;;4.80;74.31;95987.41;5091335;28;20051;-77
2021/10/20 06:21:50;;;;;;;16.95;11.43;;;;;;;5.11;76.81;95980.06;5092605;28;20028;-76
2021/10/20 06:24:16;;;;;;;30.35;20.33;;;;;;;5.87;81.20;95979.31;5091007;28;20036;-77
2021/10/20 06:26:41;;;;;;;49.65;29.08;;;;;;;6.42;82.16;95979.34;5091001;28;20056;-76
2021/10/20 06:29:07;;;;;;;51.55;32.22;;;;;;;7.06;83.43;95986.50;5091166;28;20024;-77
2021/10/20 06:31:32;;;;;;;46.35;30.88;;;;;;;7.77;84.58;95988.03;5124853;27;20031;-76
2021/10/20 06:33:58;;;;;;;43.22;28.23;;;;;;;8.27;84.16;95985.31;5108071;28;20063;-76
2021/10/20 06:36:31;;;;;;;32.08;21.67;;;;;;;8.92;84.10;95992.06;5091042;28;20028;-76
2021/10/20 06:38:57;;;;;;;23.80;18.00;;;;;;;9.52;81.74;95993.75;5091016;28;20031;-77
2021/10/20 06:41:22;;;;;;;19.83;15.30;;;;;;;9.97;79.46;95981.47;5124941;27;20464;-77
2021/10/20 06:43:48;;;;;;;19.08;13.43;;;;;;;10.26;77.38;95993.50;5124675;27;20409;-77
2021/10/20 06:46:13;;;;;;;17.55;13.35;;;;;;;10.57;73.46;95990.75;5107792;28;20039;-77
2021/10/20 06:48:39;;;;;;;18.95;14.07;;;;;;;10.73;70.48;95992.25;5092085;28;20073;-77
2021/10/20 06:51:05;;;;;;;17.77;12.90;;;;;;;10.84;67.21;95998.53;5090803;28;20105;-77
2021/10/20 06:53:31;;;;;;;19.02;13.93;;;;;;;10.76;63.99;95995.59;5091659;28;20032;-77
2021/10/20 06:55:56;;;;;;;18.17;13.32;;;;;;;10.68;62.34;96001.28;5124719;27;20107;-77
2021/10/20 06:58:22;;;;;;;19.13;13.98;;;;;;;10.55;61.15;95987.41;5091895;28;20032;-77
2021/10/20 07:00:48;;;;;;;23.13;15.98;;;;;;;10.62;61.71;96004.28;5091679;28;20493;-76
2021/10/20 07:03:14;;;;;;;25.05;16.13;;;;;;;10.72;61.69;96006.16;5090419;28;20047;-76
2021/10/20 07:05:40;;;;;;;24.98;17.42;;;;;;;10.71;60.50;95988.09;5091888;28;20036;-75
2021/10/20 07:08:05;;;;;;;24.90;18.08;;;;;;;10.77;59.13;95997.25;5107500;28;20505;-76
2021/10/20 07:10:31;;;;;;;28.25;18.02;;;;;;;10.87;58.93;96008.72;5107024;28;20492;-73
2021/10/20 07:12:57;;;;;;;27.13;18.13;;;;;;;10.91;57.69;96000.63;5091503;28;20024;-76
2021/10/20 07:15:22;;;;;;;24.10;15.95;;;;;;;10.87;57.45;95999.16;5107436;28;20111;-77
2021/10/20 07:17:48;;;;;;;22.55;15.05;;;;;;;10.75;57.99;95971.34;5091965;28;20042;-78
2021/10/20 07:20:13;;;;;;;21.95;15.68;;;;;;;10.98;56.85;95998.47;5090058;28;20427;-77
2021/10/20 07:22:39;;;;;;;19.25;14.65;;;;;;;11.09;57.83;95997.75;5073433;28;20409;-76
2021/10/20 07:25:08;;;;;;;24.67;15.80;;;;;;;11.17;58.01;95991.13;5091386;28;20023;-76
2021/10/20 07:27:34;;;;;;;21.35;15.05;;;;;;;11.26;57.08;95994.03;5090069;28;20124;-76
2021/10/20 07:30:01;;;;;;;21.20;15.13;;;;;;;11.38;55.80;96004.44;5106652;28;20040;-73
2021/10/20 07:32:26;;;;;;;18.67;14.93;;;;;;;11.36;54.83;95995.06;5089647;28;20630;-74
2021/10/20 07:34:52;;;;;;;22.33;15.30;;;;;;;11.34;55.23;95996.97;5115610;28;20497;-73
2021/10/20 07:37:17;;;;;;;22.27;15.68;;;;;;;11.43;54.84;96000.72;5091317;28;20036;-73
2021/10/20 07:39:42;;;;;;;26.27;17.15;;;;;;;11.53;54.09;96002.59;5104912;28;20060;-73
2021/10/20 07:42:08;;;;;;;17.05;12.57;;;;;;;11.59;55.08;96001.34;5089852;28;20032;-73
2021/10/20 07:44:33;;;;;;;15.93;11.63;;;;;;;11.70;54.87;95997.97;5091147;28;20024;-73
2021/10/20 07:46:59;;;;;;;17.60;12.63;;;;;;;11.80;54.79;96009.44;5089785;28;20043;-73
2021/10/20 07:49:24;;;;;;;19.35;14.45;;;;;;;11.76;53.86;95992.38;5089579;28;20017;-73
2021/10/20 07:51:53;;;;;;;18.75;13.45;;;;;;;11.81;52.95;96000.69;5123939;28;20052;-73
2021/10/20 07:54:18;;;;;;;16.67;13.05;;;;;;;11.83;52.87;95998.81;5122811;28;20024;-72
2021/10/20 07:56:43;;;;;;;18.45;13.15;;;;;;;11.84;53.05;95983.09;5089674;28;20574;-72
2021/10/20 07:59:09;;;;;;;16.92;13.15;;;;;;;11.92;53.01;95972.16;5090680;28;20016;-72
2021/10/20 08:01:34;;;;;;;30.42;19.27;;;;;;;12.02;53.46;95994.03;5089401;28;20032;-72
2021/10/20 08:04:00;;;;;;;22.38;16.45;;;;;;;12.09;52.85;95989.22;5089295;28;20028;-72
2021/10/20 08:06:26;;;;;;;19.58;13.90;;;;;;;12.02;52.47;95981.00;5090842;28;20036;-73
2021/10/20 08:08:51;;;;;;;18.08;13.95;;;;;;;11.99;51.83;95970.78;5089483;28;20025;-72
2021/10/20 08:11:16;;;;;;;18.65;13.48;;;;;;;12.02;51.91;95990.59;5090949;28;20036;-72
2021/10/20 08:13:42;;;;;;;18.45;13.68;;;;;;;12.01;52.31;95974.13;5090669;28;20036;-72
2021/10/20 08:16:07;;;;;;;21.90;14.38;;;;;;;12.19;52.60;95984.19;5090902;28;20054;-72
2021/10/20 08:18:33;;;;;;;14.57;11.55;;;;;;;12.32;52.42;95982.38;5090577;28;20039;-73
2021/10/20 08:20:58;;;;;;;16.42;12.38;;;;;;;12.45;51.97;95980.56;5090843;28;20039;-72
2021/10/20 08:23:26;;;;;;;18.70;13.77;;;;;;;12.48;51.27;95975.13;5090776;28;20030;-72
2021/10/20 08:25:52;;;;;;;15.23;11.23;;;;;;;12.54;51.17;95976.47;5122573;28;20509;-72
2021/10/20 08:28:17;;;;;;;15.75;12.85;;;;;;;12.65;50.89;95980.91;5089096;28;20026;-73
2021/10/20 08:30:42;;;;;;;14.75;10.95;;;;;;;12.78;50.64;95975.63;5089109;28;20046;-72
2021/10/20 08:33:08;;;;;;;15.80;11.48;;;;;;;12.86;50.57;95968.88;5090514;28;20020;-72
2021/10/20 08:35:37;;;;;;;13.85;11.02;;;;;;;12.90;50.49;95959.09;5090375;28;20039;-72
2021/10/20 08:38:05;;;;;;;15.93;11.90;;;;;;;13.03;50.66;95972.84;5105626;28;20361;-73
2021/10/20 08:40:38;;;;;;;16.15;11.20;;;;;;;13.08;50.57;95956.88;5091042;28;20503;-72
2021/10/20 08:43:07;;;;;;;14.27;11.02;;;;;;;13.16;50.64;95955.34;5108813;28;20035;-73
2021/10/20 08:45:32;;;;;;;17.70;13.18;;;;;;;13.32;50.50;95969.91;5092398;28;20032;-72
2021/10/20 08:47:58;;;;;;;18.30;13.02;;;;;;;13.38;49.96;95953.78;5075708;28;20078;-73
2021/10/20 08:50:27;;;;;;;19.52;14.88;;;;;;;13.41;49.87;95956.97;5126454;27;20385;-74
2021/10/20 08:52:53;;;;;;;17.95;14.50;;;;;;;13.43;49.62;95963.84;5093731;28;20032;-74
2021/10/20 08:55:18;;;;;;;16.08;13.25;;;;;;;13.38;48.41;95954.59;5075607;28;20427;-74
2021/10/20 08:57:44;;;;;;;23.83;17.15;;;;;;;13.21;48.46;95951.59;5126548;27;20060;-75
2021/10/20 09:00:11;;;;;;;21.20;16.20;;;;;;;13.04;49.16;95934.56;5126354;27;20034;-74
2021/10/20 09:02:38;;;;;;;21.33;16.10;;;;;;;13.04;49.46;95945.00;5126392;27;20124;-74
2021/10/20 09:05:05;;;;;;;22.33;15.95;;;;;;;13.08;49.11;95946.44;5109230;28;20038;-74
2021/10/20 09:07:30;;;;;;;23.55;16.33;;;;;;;13.02;49.88;95941.69;5109248;28;20035;-75
2021/10/20 09:09:55;;;;;;;23.63;15.85;;;;;;;13.08;50.33;95942.06;5092104;28;20031;-74
2021/10/20 09:12:26;;;;;;;23.30;16.38;;;;;;;13.00;49.78;95925.31;5092523;28;20035;-74
2021/10/20 09:14:56;;;;;;;29.63;18.45;;;;;;;13.07;50.21;95940.41;5091909;28;20028;-74
2021/10/20 09:17:22;;;;;;;23.58;16.63;;;;;;;13.16;50.52;95938.88;5092141;28;20497;-74
2021/10/20 09:19:47;;;;;;;22.38;16.27;;;;;;;13.25;49.81;95922.50;5092102;28;20039;-74
2021/10/20 09:22:13;;;;;;;19.73;15.70;;;;;;;13.30;50.09;95928.25;5109296;28;20122;-75
2021/10/20 09:24:41;;;;;;;18.25;14.50;;;;;;;13.46;48.75;95933.13;5108940;28;20028;-74
2021/10/20 09:27:27;;;;;;;24.08;15.55;;;;;;;13.31;50.17;95927.28;5108631;28;20063;-73
2021/10/20 09:30:13;;;;;;;21.70;15.95;;;;;;;13.41;51.05;95927.44;5091835;28;20036;-78
2021/10/20 09:32:39;;;;;;;27.75;16.50;;;;;;;13.44;50.13;95927.19;5092836;28;20040;-74
2021/10/20 09:35:06;;;;;;;20.90;15.40;;;;;;;13.37;50.14;95918.16;5108537;28;20028;-74
2021/10/20 09:37:32;;;;;;;22.10;14.95;;;;;;;13.33;49.20;95914.97;5091592;28;20036;-73
2021/10/20 09:40:03;;;;;;;20.42;14.10;;;;;;;13.28;50.08;95911.88;5091974;28;20027;-73
2021/10/20 09:42:28;;;;;;;23.02;15.45;;;;;;;13.36;50.44;95913.91;5092700;28;20528;-73
2021/10/20 09:44:55;;;;;;;23.05;16.90;;;;;;;13.36;50.85;95917.34;5091708;28;20020;-73
2021/10/20 09:47:22;;;;;;;22.10;15.55;;;;;;;13.41;50.56;95917.00;5125170;27;20036;-73
2021/10/20 09:49:48;;;;;;;19.75;14.25;;;;;;;13.48;50.81;95906.91;5091301;28;20059;-73
2021/10/20 09:52:14;;;;;;;20.35;15.20;;;;;;;13.57;51.07;95908.81;5094871;28;20115;-73
2021/10/20 09:54:41;;;;;;;18.50;13.30;;;;;;;13.64;50.91;95907.38;5111702;28;20035;-73
2021/10/20 09:57:06;;;;;;;23.25;16.35;;;;;;;13.73;51.08;95904.03;5127324;27;20062;-73
2021/10/20 09:59:32;;;;;;;24.65;16.92;;;;;;;13.74;50.25;95890.06;5110233;28;20084;-74
2021/10/20 10:01:58;;;;;;;21.08;16.27;;;;;;;13.74;50.42;95900.50;5110541;28;20038;-73
2021/10/20 10:04:25;;;;;;;25.02;18.10;;;;;;;13.65;49.46;95893.41;5110664;28;20469;-73
2021/10/20 10:06:50;;;;;;;22.58;17.65;;;;;;;13.42;51.08;95897.75;5094704;28;20038;-73
2021/10/20 10:09:16;;;;;;;20.95;15.68;;;;;;;13.49;51.54;95896.34;5094278;28;20023;-73
2021/10/20 10:12:05;;;;;;;26.02;16.48;;;;;;;13.50;50.40;95892.78;5094377;28;20106;-73
2021/10/20 10:14:39;;;;;;;40.47;23.60;;;;;;;13.52;51.03;95887.47;5112420;28;20111;-73
2021/10/20 10:17:04;;;;;;;24.20;16.33;;;;;;;13.55;50.60;95887.22;5094431;28;20106;-73
2021/10/20 10:19:31;;;;;;;20.50;15.07;;;;;;;13.52;50.75;95870.00;5112260;28;20493;-73
2021/10/20 10:21:58;;;;;;;22.88;15.15;;;;;;;13.66;50.89;95875.94;5110986;28;20165;-73
2021/10/20 10:24:23;;;;;;;21.85;14.65;;;;;;;13.75;50.93;95883.88;5111053;28;20051;-73
2021/10/20 10:27:10;;;;;;;21.77;14.35;;;;;;;13.84;50.74;95869.25;5112053;28;20043;-73
2021/10/20 10:29:45;;;;;;;24.25;15.90;;;;;;;13.90;50.43;95865.31;5112179;28;20027;-73
2021/10/20 10:32:11;;;;;;;20.30;14.27;;;;;;;13.96;50.19;95865.69;5111046;28;20114;-73
2021/10/20 10:34:47;;;;;;;16.92;12.48;;;;;;;14.06;50.67;95857.94;5110884;28;20027;-73
2021/10/20 10:37:22;;;;;;;29.70;18.25;;;;;;;14.07;50.13;95855.22;5093839;28;20393;-73
2021/10/20 10:39:50;;;;;;;24.85;16.40;;;;;;;14.09;50.16;95842.00;5110610;28;20076;-73
2021/10/20 10:42:16;;;;;;;24.02;14.95;;;;;;;14.14;49.41;95845.09;5110978;28;20094;-73
2021/10/20 10:44:48;;;;;;;25.33;16.02;;;;;;;14.12;48.73;95839.16;5110720;28;20081;-73
2021/10/20 10:47:28;;;;;;;17.15;11.07;;;;;;;14.17;49.11;95834.38;5110823;28;20373;-73
2021/10/20 10:49:55;;;;;;;21.83;13.45;;;;;;;14.31;49.23;95838.50;5110791;28;20118;-73
2021/10/20 10:52:20;;;;;;;18.95;14.48;;;;;;;14.30;48.79;95829.00;5110371;28;20552;-73
2021/10/20 10:54:55;;;;;;;18.48;13.32;;;;;;;14.25;48.80;95824.13;5111865;28;20153;-73
2021/10/20 10:57:20;;;;;;;17.50;12.93;;;;;;;14.33;49.20;95820.09;5076830;28;20023;-73
2021/10/20 11:00:05;;;;;;;16.30;12.65;;;;;;;14.31;48.88;95817.59;5093442;28;20035;-73
2021/10/20 11:02:49;;;;;;;16.48;11.63;;;;;;;14.38;49.52;95807.47;5093636;28;20066;-73
2021/10/20 11:05:20;;;;;;;21.13;13.45;;;;;;;14.44;49.50;95817.41;5094932;28;20114;-73
2021/10/20 11:07:46;;;;;;;20.05;14.70;;;;;;;14.37;48.78;95804.00;5110377;28;20507;-73
2021/10/20 11:10:12;;;;;;;20.10;13.52;;;;;;;14.37;49.02;95805.78;5110293;28;20122;-73
2021/10/20 11:12:40;;;;;;;22.50;16.15;;;;;;;14.31;49.36;95794.88;5093311;28;20412;-73
2021/10/20 11:15:10;;;;;;;20.65;14.05;;;;;;;14.47;49.15;95797.06;5093666;28;20034;-73
2021/10/20 11:17:35;;;;;;;25.05;14.10;;;;;;;14.49;49.39;95794.34;5093586;28;20629;-73